sensor_id;sensor_type;location;lat;lon;timestamp;P1;durP1;ratioP1;P2;durP2;ratioP2
11222;SDS011;5668;52.012;8.724;2022-10-16T00:01:33;3.45;;;2.60;;
11222;SDS011;5668;52.012;8.724;2022-10-16T00:04:01;3.43;;;2.60;;
11222;SDS011;5668;52.012;8.724;2022-10-16T00:06:29;3.10;;;2.90;;
11222;SDS011;5668;52.012;8.724;2022-10-16T00:08:57;3.97;;;2.30;;
11222;SDS011;5668;52.012;8.724;2022-10-16T00:11:26;2.72;;;2.35;;
11222;SDS011;5668;52.012;8.724;2022-10-16T00:13:56;3.20;;;2.45;;
11222;SDS011;5668;52.012;8.724;2022-10-16T00:16:24;2.85;;;2.40;;
11222;SDS011;5668;52.012;8.724;2022-10-16T00:18:52;3.85;;;2.58;;
11222;SDS011;5668;52.012;8.724;2022-10-16T00:21:20;3.17;;;2.30;;
11222;SDS011;5668;52.012;8.724;2022-10-16T00:23:49;3.70;;;2.70;;
11222;SDS011;5668;52.012;8.724;2022-10-16T00:26:18;2.88;;;2.10;;
11222;SDS011;5668;52.012;8.724;2022-10-16T00:28:47;2.88;;;2.63;;
11222;SDS011;5668;52.012;8.724;2022-10-16T00:31:15;3.40;;;2.20;;
11222;SDS011;5668;52.012;8.724;2022-10-16T00:33:44;2.70;;;2.17;;
11222;SDS011;5668;52.012;8.724;2022-10-16T00:36:11;4.65;;;2.38;;
11222;SDS011;5668;52.012;8.724;2022-10-16T00:38:40;4.50;;;2.33;;
11222;SDS011;5668;52.012;8.724;2022-10-16T00:41:09;3.50;;;2.37;;
11222;SDS011;5668;52.012;8.724;2022-10-16T00:43:39;2.97;;;2.47;;
11222;SDS011;5668;52.012;8.724;2022-10-16T00:46:15;5.53;;;2.70;;
11222;SDS011;5668;52.012;8.724;2022-10-16T00:48:45;3.03;;;2.50;;
11222;SDS011;5668;52.012;8.724;2022-10-16T00:51:16;3.73;;;2.80;;
11222;SDS011;5668;52.012;8.724;2022-10-16T00:53:46;3.73;;;2.53;;
11222;SDS011;5668;52.012;8.724;2022-10-16T00:56:15;3.90;;;2.40;;
11222;SDS011;5668;52.012;8.724;2022-10-16T00:58:42;3.83;;;2.50;;
11222;SDS011;5668;52.012;8.724;2022-10-16T01:01:10;3.47;;;2.57;;
11222;SDS011;5668;52.012;8.724;2022-10-16T01:03:38;4.77;;;2.67;;
11222;SDS011;5668;52.012;8.724;2022-10-16T01:06:12;3.33;;;2.40;;
11222;SDS011;5668;52.012;8.724;2022-10-16T01:08:53;3.30;;;2.60;;
11222;SDS011;5668;52.012;8.724;2022-10-16T01:11:31;3.07;;;2.30;;
11222;SDS011;5668;52.012;8.724;2022-10-16T01:14:05;3.67;;;2.40;;
11222;SDS011;5668;52.012;8.724;2022-10-16T01:16:38;3.67;;;2.50;;
11222;SDS011;5668;52.012;8.724;2022-10-16T01:19:14;3.00;;;2.40;;
11222;SDS011;5668;52.012;8.724;2022-10-16T01:21:46;3.03;;;2.60;;
11222;SDS011;5668;52.012;8.724;2022-10-16T01:24:21;4.57;;;2.53;;
11222;SDS011;5668;52.012;8.724;2022-10-16T01:27:04;4.17;;;2.93;;
11222;SDS011;5668;52.012;8.724;2022-10-16T01:29:37;4.30;;;2.67;;
11222;SDS011;5668;52.012;8.724;2022-10-16T01:32:13;5.17;;;3.10;;
11222;SDS011;5668;52.012;8.724;2022-10-16T01:34:47;5.93;;;2.90;;
11222;SDS011;5668;52.012;8.724;2022-10-16T01:37:18;4.07;;;2.78;;
11222;SDS011;5668;52.012;8.724;2022-10-16T01:39:53;4.28;;;2.55;;
11222;SDS011;5668;52.012;8.724;2022-10-16T01:42:27;3.20;;;2.67;;
11222;SDS011;5668;52.012;8.724;2022-10-16T01:45:00;3.75;;;2.75;;
11222;SDS011;5668;52.012;8.724;2022-10-16T01:47:31;5.23;;;2.93;;
11222;SDS011;5668;52.012;8.724;2022-10-16T01:49:59;3.45;;;2.60;;
11222;SDS011;5668;52.012;8.724;2022-10-16T01:52:32;4.93;;;2.75;;
11222;SDS011;5668;52.012;8.724;2022-10-16T01:55:03;3.57;;;2.60;;
11222;SDS011;5668;52.012;8.724;2022-10-16T01:57:34;2.93;;;2.63;;
11222;SDS011;5668;52.012;8.724;2022-10-16T02:00:07;3.83;;;2.47;;
11222;SDS011;5668;52.012;8.724;2022-10-16T02:02:38;3.47;;;2.40;;
11222;SDS011;5668;52.012;8.724;2022-10-16T02:05:10;4.33;;;2.70;;
11222;SDS011;5668;52.012;8.724;2022-10-16T02:07:42;3.40;;;2.47;;
11222;SDS011;5668;52.012;8.724;2022-10-16T02:10:09;5.93;;;2.43;;
11222;SDS011;5668;52.012;8.724;2022-10-16T02:12:39;3.70;;;2.50;;
11222;SDS011;5668;52.012;8.724;2022-10-16T02:15:10;3.73;;;2.80;;
11222;SDS011;5668;52.012;8.724;2022-10-16T02:17:37;3.77;;;2.50;;
11222;SDS011;5668;52.012;8.724;2022-10-16T02:20:05;3.03;;;2.40;;
11222;SDS011;5668;52.012;8.724;2022-10-16T02:22:35;4.40;;;2.40;;
11222;SDS011;5668;52.012;8.724;2022-10-16T02:25:08;3.63;;;2.53;;
11222;SDS011;5668;52.012;8.724;2022-10-16T02:27:41;3.87;;;2.27;;
11222;SDS011;5668;52.012;8.724;2022-10-16T02:30:19;3.27;;;2.20;;
11222;SDS011;5668;52.012;8.724;2022-10-16T02:32:51;3.67;;;2.10;;
11222;SDS011;5668;52.012;8.724;2022-10-16T02:35:20;2.83;;;2.00;;
11222;SDS011;5668;52.012;8.724;2022-10-16T02:37:49;4.43;;;2.20;;
11222;SDS011;5668;52.012;8.724;2022-10-16T02:40:17;3.40;;;2.03;;
11222;SDS011;5668;52.012;8.724;2022-10-16T02:42:49;3.37;;;2.10;;
11222;SDS011;5668;52.012;8.724;2022-10-16T02:45:17;2.53;;;1.83;;
11222;SDS011;5668;52.012;8.724;2022-10-16T02:47:45;3.30;;;2.00;;
11222;SDS011;5668;52.012;8.724;2022-10-16T02:50:12;4.97;;;1.90;;
11222;SDS011;5668;52.012;8.724;2022-10-16T02:52:40;3.90;;;2.20;;
11222;SDS011;5668;52.012;8.724;2022-10-16T02:55:08;3.60;;;2.00;;
11222;SDS011;5668;52.012;8.724;2022-10-16T02:57:35;3.90;;;2.33;;
11222;SDS011;5668;52.012;8.724;2022-10-16T03:02:40;5.80;;;2.37;;
11222;SDS011;5668;52.012;8.724;2022-10-16T03:05:08;3.73;;;2.10;;
11222;SDS011;5668;52.012;8.724;2022-10-16T03:07:35;3.80;;;2.73;;
11222;SDS011;5668;52.012;8.724;2022-10-16T03:10:03;4.30;;;2.40;;
11222;SDS011;5668;52.012;8.724;2022-10-16T03:12:31;2.57;;;2.30;;
11222;SDS011;5668;52.012;8.724;2022-10-16T03:14:58;5.20;;;2.43;;
11222;SDS011;5668;52.012;8.724;2022-10-16T03:17:26;3.07;;;2.30;;
11222;SDS011;5668;52.012;8.724;2022-10-16T03:19:54;4.30;;;2.27;;
11222;SDS011;5668;52.012;8.724;2022-10-16T03:22:21;2.70;;;2.37;;
11222;SDS011;5668;52.012;8.724;2022-10-16T03:24:48;5.50;;;2.13;;
11222;SDS011;5668;52.012;8.724;2022-10-16T03:27:15;1.97;;;1.67;;
11222;SDS011;5668;52.012;8.724;2022-10-16T03:29:43;2.30;;;1.70;;
11222;SDS011;5668;52.012;8.724;2022-10-16T03:32:10;2.63;;;1.73;;
11222;SDS011;5668;52.012;8.724;2022-10-16T03:34:37;3.63;;;2.00;;
11222;SDS011;5668;52.012;8.724;2022-10-16T03:37:05;4.40;;;1.90;;
11222;SDS011;5668;52.012;8.724;2022-10-16T03:39:32;1.93;;;1.47;;
11222;SDS011;5668;52.012;8.724;2022-10-16T03:41:59;2.90;;;1.50;;
11222;SDS011;5668;52.012;8.724;2022-10-16T03:44:27;2.43;;;1.60;;
11222;SDS011;5668;52.012;8.724;2022-10-16T03:46:54;3.83;;;1.60;;
11222;SDS011;5668;52.012;8.724;2022-10-16T03:49:21;2.13;;;1.40;;
11222;SDS011;5668;52.012;8.724;2022-10-16T03:51:48;1.70;;;1.57;;
11222;SDS011;5668;52.012;8.724;2022-10-16T03:54:16;2.30;;;1.73;;
11222;SDS011;5668;52.012;8.724;2022-10-16T03:56:44;2.10;;;1.50;;
11222;SDS011;5668;52.012;8.724;2022-10-16T03:59:11;1.60;;;1.50;;
11222;SDS011;5668;52.012;8.724;2022-10-16T04:01:38;1.87;;;1.47;;
11222;SDS011;5668;52.012;8.724;2022-10-16T04:04:05;2.27;;;1.50;;
11222;SDS011;5668;52.012;8.724;2022-10-16T04:06:32;3.40;;;1.40;;
11222;SDS011;5668;52.012;8.724;2022-10-16T04:08:59;6.17;;;1.70;;
11222;SDS011;5668;52.012;8.724;2022-10-16T04:11:28;1.80;;;1.20;;
11222;SDS011;5668;52.012;8.724;2022-10-16T04:13:55;2.90;;;1.50;;
11222;SDS011;5668;52.012;8.724;2022-10-16T04:16:22;2.87;;;1.80;;
11222;SDS011;5668;52.012;8.724;2022-10-16T04:18:49;3.45;;;1.23;;
11222;SDS011;5668;52.012;8.724;2022-10-16T04:21:16;2.03;;;1.30;;
11222;SDS011;5668;52.012;8.724;2022-10-16T04:23:44;2.77;;;1.40;;
11222;SDS011;5668;52.012;8.724;2022-10-16T04:26:11;4.13;;;1.47;;
11222;SDS011;5668;52.012;8.724;2022-10-16T04:28:39;2.90;;;1.40;;
11222;SDS011;5668;52.012;8.724;2022-10-16T04:31:07;1.97;;;1.13;;
11222;SDS011;5668;52.012;8.724;2022-10-16T04:33:34;2.03;;;1.40;;
11222;SDS011;5668;52.012;8.724;2022-10-16T04:36:01;2.23;;;1.20;;
11222;SDS011;5668;52.012;8.724;2022-10-16T04:38:29;1.80;;;1.30;;
11222;SDS011;5668;52.012;8.724;2022-10-16T04:40:56;1.30;;;1.10;;
11222;SDS011;5668;52.012;8.724;2022-10-16T04:43:24;3.00;;;1.43;;
11222;SDS011;5668;52.012;8.724;2022-10-16T04:45:53;1.87;;;1.20;;
11222;SDS011;5668;52.012;8.724;2022-10-16T04:48:21;2.20;;;1.30;;
11222;SDS011;5668;52.012;8.724;2022-10-16T04:50:48;4.70;;;1.60;;
11222;SDS011;5668;52.012;8.724;2022-10-16T04:53:15;3.63;;;1.30;;
11222;SDS011;5668;52.012;8.724;2022-10-16T04:55:43;2.40;;;1.40;;
11222;SDS011;5668;52.012;8.724;2022-10-16T04:58:10;1.23;;;1.13;;
11222;SDS011;5668;52.012;8.724;2022-10-16T05:00:37;3.83;;;1.40;;
11222;SDS011;5668;52.012;8.724;2022-10-16T05:03:05;3.13;;;1.27;;
11222;SDS011;5668;52.012;8.724;2022-10-16T05:05:33;1.53;;;1.20;;
11222;SDS011;5668;52.012;8.724;2022-10-16T05:08:01;1.50;;;1.20;;
11222;SDS011;5668;52.012;8.724;2022-10-16T05:10:29;1.47;;;1.10;;
11222;SDS011;5668;52.012;8.724;2022-10-16T05:12:56;1.53;;;1.20;;
11222;SDS011;5668;52.012;8.724;2022-10-16T05:15:23;1.47;;;1.20;;
11222;SDS011;5668;52.012;8.724;2022-10-16T05:17:52;4.20;;;1.30;;
11222;SDS011;5668;52.012;8.724;2022-10-16T05:20:21;2.70;;;1.20;;
11222;SDS011;5668;52.012;8.724;2022-10-16T05:22:49;1.20;;;1.13;;
11222;SDS011;5668;52.012;8.724;2022-10-16T05:25:16;2.30;;;1.30;;
11222;SDS011;5668;52.012;8.724;2022-10-16T05:27:43;3.17;;;1.40;;
11222;SDS011;5668;52.012;8.724;2022-10-16T05:30:14;3.50;;;1.10;;
11222;SDS011;5668;52.012;8.724;2022-10-16T05:32:46;1.30;;;1.20;;
11222;SDS011;5668;52.012;8.724;2022-10-16T05:35:14;1.40;;;1.10;;
11222;SDS011;5668;52.012;8.724;2022-10-16T05:37:42;1.03;;;1.00;;
11222;SDS011;5668;52.012;8.724;2022-10-16T05:40:10;1.63;;;1.17;;
11222;SDS011;5668;52.012;8.724;2022-10-16T05:42:39;1.87;;;1.10;;
11222;SDS011;5668;52.012;8.724;2022-10-16T05:45:08;2.13;;;1.10;;
11222;SDS011;5668;52.012;8.724;2022-10-16T05:47:36;2.50;;;1.20;;
11222;SDS011;5668;52.012;8.724;2022-10-16T05:50:04;1.65;;;1.23;;
11222;SDS011;5668;52.012;8.724;2022-10-16T05:52:34;1.60;;;1.00;;
11222;SDS011;5668;52.012;8.724;2022-10-16T05:55:02;2.13;;;1.20;;
11222;SDS011;5668;52.012;8.724;2022-10-16T05:57:30;3.07;;;1.00;;
11222;SDS011;5668;52.012;8.724;2022-10-16T05:59:57;1.33;;;1.00;;
11222;SDS011;5668;52.012;8.724;2022-10-16T06:02:24;1.13;;;1.03;;
11222;SDS011;5668;52.012;8.724;2022-10-16T06:04:52;1.77;;;1.20;;
11222;SDS011;5668;52.012;8.724;2022-10-16T06:07:19;2.03;;;1.00;;
11222;SDS011;5668;52.012;8.724;2022-10-16T06:09:47;2.97;;;1.10;;
11222;SDS011;5668;52.012;8.724;2022-10-16T06:12:17;1.70;;;1.13;;
11222;SDS011;5668;52.012;8.724;2022-10-16T06:14:44;1.67;;;1.20;;
11222;SDS011;5668;52.012;8.724;2022-10-16T06:17:12;2.70;;;1.00;;
11222;SDS011;5668;52.012;8.724;2022-10-16T06:19:39;1.73;;;1.17;;
11222;SDS011;5668;52.012;8.724;2022-10-16T06:22:06;1.10;;;1.00;;
11222;SDS011;5668;52.012;8.724;2022-10-16T06:24:34;1.37;;;1.07;;
11222;SDS011;5668;52.012;8.724;2022-10-16T06:27:01;1.40;;;1.30;;
11222;SDS011;5668;52.012;8.724;2022-10-16T06:29:31;0.97;;;0.87;;
11222;SDS011;5668;52.012;8.724;2022-10-16T06:31:58;1.97;;;1.07;;
11222;SDS011;5668;52.012;8.724;2022-10-16T06:34:25;1.00;;;0.87;;
11222;SDS011;5668;52.012;8.724;2022-10-16T06:36:52;1.00;;;0.90;;
11222;SDS011;5668;52.012;8.724;2022-10-16T06:39:20;2.20;;;1.10;;
11222;SDS011;5668;52.012;8.724;2022-10-16T06:41:47;1.70;;;1.00;;
11222;SDS011;5668;52.012;8.724;2022-10-16T06:44:14;4.43;;;1.20;;
11222;SDS011;5668;52.012;8.724;2022-10-16T06:46:43;2.40;;;1.00;;
11222;SDS011;5668;52.012;8.724;2022-10-16T06:49:10;1.90;;;1.20;;
11222;SDS011;5668;52.012;8.724;2022-10-16T06:51:37;1.83;;;1.03;;
11222;SDS011;5668;52.012;8.724;2022-10-16T06:54:06;1.10;;;1.00;;
11222;SDS011;5668;52.012;8.724;2022-10-16T06:56:33;2.50;;;1.10;;
11222;SDS011;5668;52.012;8.724;2022-10-16T06:59:01;2.63;;;1.10;;
11222;SDS011;5668;52.012;8.724;2022-10-16T07:01:29;2.28;;;1.10;;
11222;SDS011;5668;52.012;8.724;2022-10-16T07:03:58;3.00;;;1.20;;
11222;SDS011;5668;52.012;8.724;2022-10-16T07:06:27;2.10;;;1.10;;
11222;SDS011;5668;52.012;8.724;2022-10-16T07:08:56;1.30;;;0.90;;
11222;SDS011;5668;52.012;8.724;2022-10-16T07:11:24;2.20;;;1.00;;
11222;SDS011;5668;52.012;8.724;2022-10-16T07:13:51;0.80;;;0.80;;
11222;SDS011;5668;52.012;8.724;2022-10-16T07:16:19;2.10;;;0.90;;
11222;SDS011;5668;52.012;8.724;2022-10-16T07:18:47;1.70;;;1.20;;
11222;SDS011;5668;52.012;8.724;2022-10-16T07:21:18;1.50;;;1.00;;
11222;SDS011;5668;52.012;8.724;2022-10-16T07:23:49;2.40;;;1.10;;
11222;SDS011;5668;52.012;8.724;2022-10-16T07:26:17;1.20;;;1.10;;
11222;SDS011;5668;52.012;8.724;2022-10-16T07:28:44;1.55;;;1.00;;
11222;SDS011;5668;52.012;8.724;2022-10-16T07:31:12;2.55;;;1.00;;
11222;SDS011;5668;52.012;8.724;2022-10-16T07:33:41;1.15;;;1.00;;
11222;SDS011;5668;52.012;8.724;2022-10-16T07:36:10;1.92;;;1.20;;
11222;SDS011;5668;52.012;8.724;2022-10-16T07:38:39;1.45;;;1.00;;
11222;SDS011;5668;52.012;8.724;2022-10-16T07:41:07;1.20;;;1.10;;
11222;SDS011;5668;52.012;8.724;2022-10-16T07:43:36;2.95;;;1.30;;
11222;SDS011;5668;52.012;8.724;2022-10-16T07:46:04;2.05;;;1.35;;
11222;SDS011;5668;52.012;8.724;2022-10-16T07:48:32;1.05;;;0.98;;
11222;SDS011;5668;52.012;8.724;2022-10-16T07:51:00;2.20;;;1.20;;
11222;SDS011;5668;52.012;8.724;2022-10-16T07:53:29;2.92;;;1.10;;
11222;SDS011;5668;52.012;8.724;2022-10-16T07:55:58;1.47;;;1.20;;
11222;SDS011;5668;52.012;8.724;2022-10-16T07:58:26;2.17;;;1.00;;
11222;SDS011;5668;52.012;8.724;2022-10-16T08:00:54;1.30;;;1.08;;
11222;SDS011;5668;52.012;8.724;2022-10-16T08:03:22;2.05;;;1.30;;
11222;SDS011;5668;52.012;8.724;2022-10-16T08:05:49;1.90;;;1.10;;
11222;SDS011;5668;52.012;8.724;2022-10-16T08:08:17;1.60;;;1.40;;
11222;SDS011;5668;52.012;8.724;2022-10-16T08:10:45;1.70;;;1.00;;
11222;SDS011;5668;52.012;8.724;2022-10-16T08:13:13;1.10;;;1.00;;
11222;SDS011;5668;52.012;8.724;2022-10-16T08:15:40;2.60;;;1.27;;
11222;SDS011;5668;52.012;8.724;2022-10-16T08:18:08;1.17;;;1.07;;
11222;SDS011;5668;52.012;8.724;2022-10-16T08:20:38;2.90;;;1.00;;
11222;SDS011;5668;52.012;8.724;2022-10-16T08:23:07;1.20;;;1.10;;
11222;SDS011;5668;52.012;8.724;2022-10-16T08:25:35;1.10;;;1.00;;
11222;SDS011;5668;52.012;8.724;2022-10-16T08:28:03;1.38;;;1.10;;
11222;SDS011;5668;52.012;8.724;2022-10-16T08:30:32;1.27;;;1.02;;
11222;SDS011;5668;52.012;8.724;2022-10-16T08:33:00;1.98;;;0.95;;
11222;SDS011;5668;52.012;8.724;2022-10-16T08:35:27;0.90;;;0.90;;
11222;SDS011;5668;52.012;8.724;2022-10-16T08:37:54;2.15;;;0.90;;
11222;SDS011;5668;52.012;8.724;2022-10-16T08:40:22;2.13;;;0.90;;
11222;SDS011;5668;52.012;8.724;2022-10-16T08:42:57;2.53;;;0.98;;
11222;SDS011;5668;52.012;8.724;2022-10-16T08:45:40;2.10;;;1.08;;
11222;SDS011;5668;52.012;8.724;2022-10-16T08:48:20;1.20;;;1.10;;
11222;SDS011;5668;52.012;8.724;2022-10-16T08:50:51;1.52;;;1.00;;
11222;SDS011;5668;52.012;8.724;2022-10-16T08:53:20;1.30;;;1.10;;
11222;SDS011;5668;52.012;8.724;2022-10-16T08:55:51;1.67;;;0.93;;
11222;SDS011;5668;52.012;8.724;2022-10-16T08:58:20;2.42;;;1.05;;
11222;SDS011;5668;52.012;8.724;2022-10-16T09:00:54;2.90;;;1.10;;
11222;SDS011;5668;52.012;8.724;2022-10-16T09:03:32;3.88;;;1.10;;
11222;SDS011;5668;52.012;8.724;2022-10-16T09:06:16;3.30;;;1.25;;
11222;SDS011;5668;52.012;8.724;2022-10-16T09:08:57;3.53;;;1.38;;
11222;SDS011;5668;52.012;8.724;2022-10-16T09:11:38;1.40;;;1.10;;
11222;SDS011;5668;52.012;8.724;2022-10-16T09:14:37;1.92;;;1.20;;
11222;SDS011;5668;52.012;8.724;2022-10-16T09:17:20;3.05;;;1.30;;
11222;SDS011;5668;52.012;8.724;2022-10-16T09:20:11;2.30;;;1.38;;
11222;SDS011;5668;52.012;8.724;2022-10-16T09:22:55;1.45;;;0.90;;
11222;SDS011;5668;52.012;8.724;2022-10-16T09:25:36;1.20;;;1.05;;
11222;SDS011;5668;52.012;8.724;2022-10-16T09:28:07;1.45;;;1.05;;
11222;SDS011;5668;52.012;8.724;2022-10-16T09:30:35;1.13;;;1.02;;
11222;SDS011;5668;52.012;8.724;2022-10-16T09:33:04;2.13;;;1.08;;
11222;SDS011;5668;52.012;8.724;2022-10-16T09:35:35;3.38;;;1.02;;
11222;SDS011;5668;52.012;8.724;2022-10-16T09:38:04;1.42;;;0.90;;
11222;SDS011;5668;52.012;8.724;2022-10-16T09:40:34;1.73;;;1.15;;
11222;SDS011;5668;52.012;8.724;2022-10-16T09:43:19;1.63;;;0.85;;
11222;SDS011;5668;52.012;8.724;2022-10-16T09:45:59;3.33;;;1.00;;
11222;SDS011;5668;52.012;8.724;2022-10-16T09:48:30;1.60;;;0.90;;
11222;SDS011;5668;52.012;8.724;2022-10-16T09:51:02;2.53;;;0.80;;
11222;SDS011;5668;52.012;8.724;2022-10-16T09:53:41;1.88;;;0.80;;
11222;SDS011;5668;52.012;8.724;2022-10-16T09:56:10;2.13;;;0.90;;
11222;SDS011;5668;52.012;8.724;2022-10-16T09:58:49;1.65;;;0.80;;
11222;SDS011;5668;52.012;8.724;2022-10-16T10:01:17;1.65;;;0.80;;
11222;SDS011;5668;52.012;8.724;2022-10-16T10:03:48;1.90;;;1.00;;
11222;SDS011;5668;52.012;8.724;2022-10-16T10:06:18;3.03;;;1.25;;
11222;SDS011;5668;52.012;8.724;2022-10-16T10:11:47;1.40;;;0.85;;
11222;SDS011;5668;52.012;8.724;2022-10-16T10:14:17;1.88;;;1.10;;
11222;SDS011;5668;52.012;8.724;2022-10-16T10:16:47;1.80;;;0.90;;
11222;SDS011;5668;52.012;8.724;2022-10-16T10:19:17;3.63;;;0.90;;
11222;SDS011;5668;52.012;8.724;2022-10-16T10:21:45;2.28;;;0.93;;
11222;SDS011;5668;52.012;8.724;2022-10-16T10:24:13;1.95;;;0.80;;
11222;SDS011;5668;52.012;8.724;2022-10-16T10:26:49;1.10;;;0.80;;
11222;SDS011;5668;52.012;8.724;2022-10-16T10:29:28;0.80;;;0.60;;
11222;SDS011;5668;52.012;8.724;2022-10-16T10:32:07;2.60;;;0.70;;
11222;SDS011;5668;52.012;8.724;2022-10-16T10:34:49;2.50;;;0.70;;
11222;SDS011;5668;52.012;8.724;2022-10-16T10:37:28;1.95;;;0.65;;
11222;SDS011;5668;52.012;8.724;2022-10-16T10:40:16;1.38;;;0.60;;
11222;SDS011;5668;52.012;8.724;2022-10-16T10:42:57;2.90;;;0.80;;
11222;SDS011;5668;52.012;8.724;2022-10-16T10:45:37;2.80;;;0.88;;
11222;SDS011;5668;52.012;8.724;2022-10-16T10:51:08;2.15;;;0.60;;
11222;SDS011;5668;52.012;8.724;2022-10-16T10:53:41;1.13;;;0.80;;
11222;SDS011;5668;52.012;8.724;2022-10-16T10:56:22;1.95;;;0.80;;
11222;SDS011;5668;52.012;8.724;2022-10-16T10:59:08;1.60;;;0.60;;
11222;SDS011;5668;52.012;8.724;2022-10-16T11:01:48;1.55;;;1.02;;
11222;SDS011;5668;52.012;8.724;2022-10-16T11:04:26;3.45;;;0.90;;
11222;SDS011;5668;52.012;8.724;2022-10-16T11:07:05;0.98;;;0.70;;
11222;SDS011;5668;52.012;8.724;2022-10-16T11:09:38;4.82;;;0.68;;
11222;SDS011;5668;52.012;8.724;2022-10-16T11:12:11;3.30;;;0.77;;
11222;SDS011;5668;52.012;8.724;2022-10-16T11:14:45;1.42;;;0.65;;
11222;SDS011;5668;52.012;8.724;2022-10-16T11:17:17;3.33;;;0.73;;
11222;SDS011;5668;52.012;8.724;2022-10-16T11:19:51;1.20;;;0.50;;
11222;SDS011;5668;52.012;8.724;2022-10-16T11:22:23;1.70;;;0.65;;
11222;SDS011;5668;52.012;8.724;2022-10-16T11:24:58;1.92;;;0.60;;
11222;SDS011;5668;52.012;8.724;2022-10-16T11:27:34;2.10;;;0.63;;
11222;SDS011;5668;52.012;8.724;2022-10-16T11:30:04;2.30;;;0.70;;
11222;SDS011;5668;52.012;8.724;2022-10-16T11:32:40;2.15;;;0.50;;
11222;SDS011;5668;52.012;8.724;2022-10-16T11:35:19;1.75;;;0.60;;
11222;SDS011;5668;52.012;8.724;2022-10-16T11:37:52;1.67;;;0.70;;
11222;SDS011;5668;52.012;8.724;2022-10-16T11:40:23;0.70;;;0.50;;
11222;SDS011;5668;52.012;8.724;2022-10-16T11:42:56;1.98;;;0.60;;
11222;SDS011;5668;52.012;8.724;2022-10-16T11:45:31;2.05;;;0.80;;
11222;SDS011;5668;52.012;8.724;2022-10-16T11:48:04;1.27;;;0.65;;
11222;SDS011;5668;52.012;8.724;2022-10-16T11:50:43;2.58;;;0.50;;
11222;SDS011;5668;52.012;8.724;2022-10-16T11:53:23;1.75;;;0.65;;
11222;SDS011;5668;52.012;8.724;2022-10-16T11:56:03;2.50;;;0.60;;
11222;SDS011;5668;52.012;8.724;2022-10-16T11:58:32;0.30;;;0.30;;
11222;SDS011;5668;52.012;8.724;2022-10-16T12:01:06;2.50;;;0.50;;
11222;SDS011;5668;52.012;8.724;2022-10-16T12:03:44;0.85;;;0.40;;
11222;SDS011;5668;52.012;8.724;2022-10-16T12:06:22;1.35;;;0.65;;
11222;SDS011;5668;52.012;8.724;2022-10-16T12:08:57;1.05;;;0.57;;
11222;SDS011;5668;52.012;8.724;2022-10-16T12:11:36;0.70;;;0.43;;
11222;SDS011;5668;52.012;8.724;2022-10-16T12:14:06;1.88;;;0.70;;
11222;SDS011;5668;52.012;8.724;2022-10-16T12:16:58;1.08;;;0.60;;
11222;SDS011;5668;52.012;8.724;2022-10-16T12:19:28;1.55;;;0.63;;
11222;SDS011;5668;52.012;8.724;2022-10-16T12:21:57;1.85;;;0.50;;
11222;SDS011;5668;52.012;8.724;2022-10-16T12:24:36;2.67;;;0.60;;
11222;SDS011;5668;52.012;8.724;2022-10-16T12:27:06;2.05;;;0.80;;
11222;SDS011;5668;52.012;8.724;2022-10-16T12:29:53;1.90;;;0.70;;
11222;SDS011;5668;52.012;8.724;2022-10-16T12:32:26;1.70;;;0.60;;
11222;SDS011;5668;52.012;8.724;2022-10-16T12:34:56;1.52;;;0.70;;
11222;SDS011;5668;52.012;8.724;2022-10-16T12:37:25;2.42;;;1.02;;
11222;SDS011;5668;52.012;8.724;2022-10-16T12:39:56;3.13;;;0.70;;
11222;SDS011;5668;52.012;8.724;2022-10-16T12:42:31;1.33;;;0.50;;
11222;SDS011;5668;52.012;8.724;2022-10-16T12:45:00;1.65;;;0.60;;
11222;SDS011;5668;52.012;8.724;2022-10-16T12:47:37;1.67;;;0.63;;
11222;SDS011;5668;52.012;8.724;2022-10-16T12:50:23;1.73;;;0.68;;
11222;SDS011;5668;52.012;8.724;2022-10-16T12:52:52;1.55;;;0.88;;
11222;SDS011;5668;52.012;8.724;2022-10-16T12:55:21;1.55;;;0.60;;
11222;SDS011;5668;52.012;8.724;2022-10-16T12:57:56;1.67;;;0.60;;
11222;SDS011;5668;52.012;8.724;2022-10-16T13:00:35;2.15;;;0.73;;
11222;SDS011;5668;52.012;8.724;2022-10-16T13:03:18;2.45;;;0.98;;
11222;SDS011;5668;52.012;8.724;2022-10-16T13:06:08;3.00;;;0.90;;
11222;SDS011;5668;52.012;8.724;2022-10-16T13:08:46;2.53;;;0.80;;
11222;SDS011;5668;52.012;8.724;2022-10-16T13:11:32;1.85;;;0.60;;
11222;SDS011;5668;52.012;8.724;2022-10-16T13:14:20;2.03;;;0.70;;
11222;SDS011;5668;52.012;8.724;2022-10-16T13:17:09;2.08;;;0.70;;
11222;SDS011;5668;52.012;8.724;2022-10-16T13:19:45;2.67;;;0.77;;
11222;SDS011;5668;52.012;8.724;2022-10-16T13:22:21;1.67;;;0.80;;
11222;SDS011;5668;52.012;8.724;2022-10-16T13:24:56;1.20;;;0.85;;
11222;SDS011;5668;52.012;8.724;2022-10-16T13:27:41;1.38;;;0.70;;
11222;SDS011;5668;52.012;8.724;2022-10-16T13:30:17;1.90;;;0.77;;
11222;SDS011;5668;52.012;8.724;2022-10-16T13:32:47;1.67;;;0.80;;
11222;SDS011;5668;52.012;8.724;2022-10-16T13:35:21;1.38;;;0.68;;
11222;SDS011;5668;52.012;8.724;2022-10-16T13:37:49;1.73;;;0.60;;
11222;SDS011;5668;52.012;8.724;2022-10-16T13:40:18;2.00;;;0.80;;
11222;SDS011;5668;52.012;8.724;2022-10-16T13:42:49;2.08;;;0.55;;
11222;SDS011;5668;52.012;8.724;2022-10-16T13:45:19;2.13;;;0.60;;
11222;SDS011;5668;52.012;8.724;2022-10-16T13:47:47;1.27;;;0.57;;
11222;SDS011;5668;52.012;8.724;2022-10-16T13:50:15;2.08;;;0.70;;
11222;SDS011;5668;52.012;8.724;2022-10-16T13:52:44;1.48;;;0.77;;
11222;SDS011;5668;52.012;8.724;2022-10-16T13:55:12;1.20;;;0.80;;
11222;SDS011;5668;52.012;8.724;2022-10-16T13:57:40;2.15;;;1.30;;
11222;SDS011;5668;52.012;8.724;2022-10-16T14:00:20;2.72;;;1.40;;
11222;SDS011;5668;52.012;8.724;2022-10-16T14:02:50;1.80;;;0.90;;
11222;SDS011;5668;52.012;8.724;2022-10-16T14:05:22;2.22;;;0.65;;
11222;SDS011;5668;52.012;8.724;2022-10-16T14:07:49;0.75;;;0.60;;
11222;SDS011;5668;52.012;8.724;2022-10-16T14:10:22;1.35;;;0.65;;
11222;SDS011;5668;52.012;8.724;2022-10-16T14:12:55;3.13;;;0.75;;
11222;SDS011;5668;52.012;8.724;2022-10-16T14:15:25;1.50;;;0.60;;
11222;SDS011;5668;52.012;8.724;2022-10-16T14:17:52;2.22;;;0.80;;
11222;SDS011;5668;52.012;8.724;2022-10-16T14:20:21;1.05;;;0.70;;
11222;SDS011;5668;52.012;8.724;2022-10-16T14:22:59;1.80;;;0.80;;
11222;SDS011;5668;52.012;8.724;2022-10-16T14:25:28;2.53;;;0.80;;
11222;SDS011;5668;52.012;8.724;2022-10-16T14:27:57;3.15;;;0.90;;
11222;SDS011;5668;52.012;8.724;2022-10-16T14:30:27;1.27;;;0.93;;
11222;SDS011;5668;52.012;8.724;2022-10-16T14:32:59;1.60;;;0.65;;
11222;SDS011;5668;52.012;8.724;2022-10-16T14:35:28;1.05;;;0.77;;
11222;SDS011;5668;52.012;8.724;2022-10-16T14:37:57;2.80;;;0.77;;
11222;SDS011;5668;52.012;8.724;2022-10-16T14:40:26;1.33;;;0.55;;
11222;SDS011;5668;52.012;8.724;2022-10-16T14:42:56;0.93;;;0.60;;
11222;SDS011;5668;52.012;8.724;2022-10-16T14:45:26;1.63;;;0.52;;
11222;SDS011;5668;52.012;8.724;2022-10-16T14:47:57;1.40;;;0.80;;
11222;SDS011;5668;52.012;8.724;2022-10-16T14:50:26;1.02;;;0.70;;
11222;SDS011;5668;52.012;8.724;2022-10-16T14:52:55;1.75;;;0.90;;
11222;SDS011;5668;52.012;8.724;2022-10-16T14:55:23;2.33;;;0.85;;
11222;SDS011;5668;52.012;8.724;2022-10-16T14:57:51;2.42;;;0.60;;
11222;SDS011;5668;52.012;8.724;2022-10-16T15:00:19;1.85;;;0.63;;
11222;SDS011;5668;52.012;8.724;2022-10-16T15:02:49;1.75;;;0.70;;
11222;SDS011;5668;52.012;8.724;2022-10-16T15:05:18;2.00;;;0.80;;
11222;SDS011;5668;52.012;8.724;2022-10-16T15:07:47;1.88;;;0.75;;
11222;SDS011;5668;52.012;8.724;2022-10-16T15:10:15;2.13;;;0.80;;
11222;SDS011;5668;52.012;8.724;2022-10-16T15:12:44;1.20;;;0.60;;
11222;SDS011;5668;52.012;8.724;2022-10-16T15:15:23;1.45;;;0.70;;
11222;SDS011;5668;52.012;8.724;2022-10-16T15:17:59;1.08;;;0.60;;
11222;SDS011;5668;52.012;8.724;2022-10-16T15:20:28;2.00;;;0.60;;
11222;SDS011;5668;52.012;8.724;2022-10-16T15:22:57;1.67;;;0.80;;
11222;SDS011;5668;52.012;8.724;2022-10-16T15:25:29;1.48;;;0.77;;
11222;SDS011;5668;52.012;8.724;2022-10-16T15:27:58;1.30;;;0.70;;
11222;SDS011;5668;52.012;8.724;2022-10-16T15:30:26;1.08;;;0.60;;
11222;SDS011;5668;52.012;8.724;2022-10-16T15:32:54;1.23;;;0.65;;